createdAt,value
2022-12-14T00:00:02.568Z,96.2
2022-12-14T00:15:03.155Z,95.9
2022-12-14T00:30:02.469Z,95.7
2022-12-14T00:45:03.145Z,95.7
2022-12-14T01:00:02.347Z,95.7
2022-12-14T01:15:02.781Z,95.5
2022-12-14T01:30:02.226Z,95.3
2022-12-14T01:45:02.664Z,95.2
2022-12-14T02:00:07.092Z,95.1
2022-12-14T02:15:03.515Z,95.0
2022-12-14T02:30:03.190Z,95.2
2022-12-14T02:45:02.401Z,95.3
2022-12-14T03:00:02.849Z,95.3
2022-12-14T03:15:02.277Z,95.1
2022-12-14T03:30:02.728Z,95.3
2022-12-14T03:45:03.223Z,95.4
2022-12-14T04:00:02.605Z,95.3
2022-12-14T04:15:03.212Z,95.3
2022-12-14T04:30:02.485Z,95.0
2022-12-14T04:45:02.927Z,94.9
2022-12-14T05:00:02.339Z,95.0
2022-12-14T05:15:02.796Z,95.2
2022-12-14T05:30:02.236Z,95.4
2022-12-14T05:45:02.660Z,95.5
2022-12-14T06:00:03.221Z,95.4
2022-12-14T06:15:02.536Z,95.3
2022-12-14T06:30:02.954Z,95.3
2022-12-14T06:45:02.383Z,95.3
2022-12-14T07:00:02.833Z,95.2
2022-12-14T07:15:03.270Z,95.1
2022-12-14T07:30:02.713Z,94.8
2022-12-14T07:45:03.262Z,94.5
2022-12-14T08:00:02.569Z,94.1
2022-12-14T08:15:03.302Z,93.5
2022-12-14T08:30:02.457Z,93.3
2022-12-14T08:45:02.925Z,93.4
2022-12-14T09:00:02.926Z,93.4
2022-12-14T09:15:02.795Z,93.1
2022-12-14T09:30:02.295Z,92.8
2022-12-14T09:45:02.681Z,92.1
2022-12-14T10:00:03.306Z,91.3
2022-12-14T10:15:02.568Z,91.5
2022-12-14T10:30:02.996Z,91.0
2022-12-14T10:45:31.532Z,90.4
2022-12-14T11:00:09.057Z,89.1
2022-12-14T11:15:02.316Z,87.2
2022-12-14T11:30:02.731Z,85.7
2022-12-14T11:45:03.328Z,84.9
2022-12-14T12:00:02.604Z,84.3
2022-12-14T12:15:03.065Z,84.5
2022-12-14T12:30:02.478Z,83.4
2022-12-14T12:45:02.914Z,84.2
2022-12-14T13:00:02.357Z,84.5
2022-12-14T13:15:02.806Z,84.5
2022-12-14T13:30:02.366Z,84.5
2022-12-14T13:45:02.649Z,84.4
2022-12-14T14:00:03.331Z,84.7
2022-12-14T14:15:02.543Z,84.7
2022-12-14T14:30:02.980Z,85.0
2022-12-14T14:45:02.405Z,85.2
2022-12-14T15:00:03.058Z,85.1
2022-12-14T15:15:02.371Z,85.1
2022-12-14T15:30:02.721Z,85.2
2022-12-14T15:45:03.375Z,85.4
2022-12-14T16:00:02.606Z,85.6
2022-12-14T16:15:03.076Z,85.9
2022-12-14T16:30:02.467Z,86.0
2022-12-14T16:45:02.913Z,86.7
2022-12-14T17:00:02.398Z,87.0
2022-12-14T17:15:02.810Z,87.1
2022-12-14T17:30:02.393Z,87.0
2022-12-14T17:45:02.701Z,87.1
2022-12-14T18:00:03.157Z,87.0
2022-12-14T18:15:02.577Z,87.3
2022-12-14T18:30:02.995Z,87.3
2022-12-14T18:45:02.442Z,87.3
2022-12-14T19:00:02.870Z,87.3
2022-12-14T19:15:02.424Z,87.7
2022-12-14T19:30:02.746Z,87.4
2022-12-14T19:45:03.380Z,87.5
2022-12-14T20:00:02.608Z,87.5
2022-12-14T20:15:03.063Z,87.7
2022-12-14T20:30:02.509Z,88.0
2022-12-14T20:45:07.061Z,87.8
2022-12-14T21:15:02.833Z,87.8
2022-12-14T21:30:02.458Z,87.9
2022-12-14T21:45:02.726Z,88.0
2022-12-14T22:00:03.174Z,88.2
2022-12-14T22:15:02.604Z,88.2
2022-12-14T22:30:03.023Z,88.4
2022-12-14T22:45:02.484Z,88.3
2022-12-14T23:00:02.899Z,88.6
2022-12-14T23:15:02.480Z,88.7
2022-12-14T23:30:02.782Z,89.0
2022-12-14T23:45:03.227Z,88.9
